LFRU/MXN METAR and TAF weather

Enter ICAO airport designator
Station Type Date Time Source
LFRU METAR 2024/02/26 17:30 UTC NOAA

LFRU 261730Z AUTO 01019KT 340V040 9999 BKN035 BKN042 08/02 Q1014


Station Type Date Time Source
LFRU Decoded METAR 2024/02/26 17:30 UTC NOAA

Morlaix / Ploujean, France (LFRU) 48-36N 003-49W
Feb 26, 2024 - 12:30 PM EST / 2024.02.26 1730 UTC
Wind: from the N (010 degrees) at 22 MPH (19 KT) (direction variable):0
Visibility: greater than 7 mile(s):0
Sky conditions: mostly cloudy
Temperature: 46 F (8 C)
Dew Point: 35 F (2 C)
Relative Humidity: 65%
Pressure (altimeter): 29.94 in. Hg (1014 hPa)
ob: LFRU 261730Z AUTO 01019KT 340V040 9999 BKN035 BKN042 08/02 Q1014
cycle: 17

Station Type Date Time Source
LFRU TAF UTC NOAA

Error!

Example: see airport list